Time;durP1;ratioP1;P1;durP2;ratioP2;P2;SDS_P1;SDS_P2;PMS_P1;PMS_P2;Temp;Humidity;BMP_temperature;BMP_pressure;BME280_temperature;BME280_humidity;BME280_pressure;Samples;Min_cycle;Max_cycle;Signal;HPM_P1;HPM_P2
2023/01/01 19:41:47;;;;;;;0.80;0.80;;;8.40;85.40;;;7.79;74.78;95622.72;5072052;28;20554;-46
2023/01/01 19:44:14;;;;;;;0.77;0.77;;;8.30;86.50;;;8.19;72.21;95626.44;5051751;28;20200;-44
2023/01/01 19:46:49;;;;;;;0.73;0.73;;;8.60;85.50;;;8.37;70.36;95621.09;5052683;28;20231;-36
2023/01/01 19:49:16;;;;;;;0.80;0.80;;;8.90;84.40;;;8.43;69.29;95620.44;5044576;28;20205;-39
2023/01/01 19:51:43;;;;;;;0.70;0.70;;;9.10;83.40;;;8.42;68.95;95618.00;5040608;28;20207;-49
2023/01/01 19:54:10;;;;;;;0.70;0.70;;;9.20;82.50;;;8.39;68.32;95623.56;5049922;28;20211;-35
2023/01/01 19:56:37;;;;;;;0.70;0.70;;;9.30;81.80;;;8.32;68.31;95613.75;5051669;28;20206;-46
2023/01/01 19:59:04;;;;;;;0.70;0.70;;;9.40;81.40;;;8.25;68.40;95617.97;5051937;28;20184;-39
2023/01/01 20:01:31;;;;;;;0.70;0.70;;;9.40;81.20;;;8.18;68.29;95622.19;5051553;28;20219;-39
2023/01/01 20:03:59;;;;;;;0.70;0.70;;;9.40;81.00;;;8.10;68.35;95625.59;5050327;28;20188;-41
2023/01/01 20:06:26;;;;;;;0.70;0.70;;;9.30;80.80;;;8.05;68.26;95621.84;5051951;28;20207;-41
2023/01/01 20:08:53;;;;;;;0.70;0.70;;;9.20;80.70;;;7.97;67.83;95623.44;5052095;28;20513;-36
2023/01/01 20:11:21;;;;;;;0.90;0.90;;;9.20;80.50;;;7.93;68.01;95622.09;5052098;28;20204;-36
2023/01/01 20:13:48;;;;;;;0.82;0.82;;;9.10;80.50;;;7.88;67.93;95621.75;5051863;28;20200;-39
2023/01/01 20:16:15;;;;;;;0.75;0.75;;;9.00;80.50;;;7.82;68.24;95618.00;5051678;28;20628;-40
2023/01/01 20:18:42;;;;;;;0.80;0.80;;;9.00;81.40;;;7.78;67.92;95621.88;5051654;28;20196;-40
2023/01/01 20:23:55;;;;;;;0.75;0.75;;;8.90;80.70;;;7.71;68.04;95617.44;5051425;28;20523;-40
2023/01/01 20:26:24;;;;;;;0.70;0.70;;;8.80;80.70;;;7.67;68.17;95622.97;5051362;28;20193;-47
2023/01/01 20:31:37;;;;;;;0.90;0.90;;;8.70;80.90;;;7.60;68.07;95621.94;5051706;28;20192;-38
2023/01/01 20:34:05;;;;;;;0.60;0.60;;;8.70;80.80;;;7.55;68.08;95620.81;5051289;28;20197;-38
2023/01/01 20:39:17;;;;;;;0.80;0.80;;;8.60;80.60;;;7.47;67.92;95613.72;5051296;28;20310;-38
2023/01/01 20:41:44;;;;;;;0.70;0.70;;;8.60;80.60;;;7.40;67.92;95607.47;5051092;28;20282;-39
2023/01/01 20:44:12;;;;;;;0.82;0.82;;;8.50;80.60;;;7.37;68.17;95616.44;5051153;28;20187;-38
2023/01/01 20:46:40;;;;;;;0.70;0.70;;;8.50;80.60;;;7.33;67.88;95610.72;5051065;28;20192;-38
2023/01/01 20:49:07;;;;;;;0.80;0.80;;;8.40;80.50;;;7.30;67.71;95615.41;5050998;28;20193;-39
2023/01/01 20:51:34;;;;;;;0.80;0.80;;;8.40;80.50;;;7.24;67.82;95616.88;5046171;28;20188;-39
2023/01/01 20:54:01;;;;;;;0.70;0.70;;;8.40;80.50;;;7.17;67.83;95619.25;5038184;28;20201;-38
2023/01/01 20:56:29;;;;;;;0.80;0.80;;;8.30;80.50;;;7.14;67.66;95616.97;5037707;28;20205;-39
2023/01/01 20:58:56;;;;;;;0.80;0.80;;;8.30;80.40;;;7.11;67.82;95619.06;5037706;28;20197;-38
2023/01/01 21:01:31;;;;;;;0.80;0.80;;;8.20;80.40;;;7.07;67.58;95608.13;5037708;28;20199;-39
2023/01/01 21:03:58;;;;;;;0.80;0.80;;;8.20;80.40;;;7.03;67.85;95615.44;5037530;28;20192;-38
2023/01/01 21:06:25;;;;;;;0.80;0.80;;;8.20;80.40;;;7.04;67.93;95618.84;5037447;28;20196;-38
2023/01/01 21:08:52;;;;;;;0.80;0.80;;;8.20;80.60;;;7.06;67.86;95619.53;5037460;28;20192;-39
2023/01/01 21:11:19;;;;;;;0.80;0.80;;;8.10;80.50;;;7.07;67.75;95623.78;5037414;28;20197;-39
2023/01/01 21:13:47;;;;;;;0.80;0.80;;;8.10;80.60;;;7.07;67.64;95613.34;5053086;28;20196;-39
2023/01/01 21:16:36;;;;;;;0.80;0.80;;;8.10;80.60;;;7.07;67.51;95620.31;5037370;28;20215;-38
2023/01/01 21:19:08;;;;;;;0.80;0.80;;;8.10;80.70;;;7.05;67.75;95613.50;5052904;28;20181;-39
2023/01/01 21:21:45;;;;;;;0.80;0.80;;;8.10;80.70;;;7.03;67.67;95618.03;5053026;28;20229;-40
2023/01/01 21:24:26;;;;;;;0.80;0.80;;;8.10;80.80;;;7.01;67.74;95621.78;5037406;28;20195;-39
2023/01/01 21:27:22;;;;;;;0.70;0.70;;;8.00;80.80;;;6.96;67.77;95614.41;5036107;28;20173;-38
2023/01/01 21:29:52;;;;;;;0.80;0.80;;;8.00;81.30;;;6.93;68.24;95613.88;5036976;28;20562;-38
2023/01/01 21:32:38;;;;;;;0.90;0.90;;;7.90;81.00;;;6.88;68.34;95612.56;5036419;28;20197;-38
2023/01/01 21:35:36;;;;;;;0.80;0.80;;;7.90;81.40;;;6.83;68.13;95603.53;5037297;28;20196;-42
2023/01/01 21:38:16;;;;;;;0.90;0.90;;;7.80;81.50;;;6.80;68.41;95604.66;5036339;28;20189;-43
2023/01/01 21:41:18;;;;;;;0.80;0.80;;;7.80;81.40;;;6.78;68.23;95597.97;5036656;28;20539;-40
2023/01/01 21:43:49;;;;;;;0.80;0.80;;;7.80;81.60;;;6.75;68.56;95601.69;5052768;28;20184;-39
2023/01/01 21:46:39;;;;;;;0.80;0.80;;;7.70;81.20;;;6.74;68.15;95602.66;5036768;28;20265;-39
2023/01/01 21:49:32;;;;;;;0.80;0.80;;;7.70;81.40;;;6.73;68.22;95601.81;5036952;28;20205;-39
2023/01/01 21:52:01;;;;;;;0.80;0.80;;;7.70;81.30;;;6.73;68.24;95596.59;5035818;28;20207;-43
2023/01/01 21:54:36;;;;;;;0.70;0.70;;;7.70;81.00;;;6.74;68.09;95597.44;5052238;28;20193;-42
2023/01/01 21:57:17;;;;;;;0.70;0.70;;;7.70;81.10;;;6.74;68.13;95594.84;5035892;28;20198;-43
2023/01/01 21:59:49;;;;;;;0.70;0.70;;;7.70;81.20;;;6.75;68.00;95595.66;5037206;28;20552;-41
2023/01/01 22:02:38;;;;;;;0.80;0.80;;;7.70;81.10;;;6.76;67.84;95589.47;5036668;28;20181;-40
2023/01/01 22:05:29;;;;;;;0.70;0.70;;;7.70;81.30;;;6.75;67.86;95587.81;5035958;28;20177;-39
2023/01/01 22:07:57;;;;;;;0.80;0.80;;;7.70;81.20;;;6.76;68.16;95586.84;5036645;28;20204;-41
2023/01/01 22:10:33;;;;;;;0.80;0.80;;;7.70;81.00;;;6.77;68.20;95591.09;5051760;28;20621;-39
2023/01/01 22:13:01;;;;;;;0.82;0.82;;;7.70;81.10;;;6.77;68.21;95583.28;5051167;28;20616;-44
2023/01/01 22:15:37;;;;;;;0.80;0.80;;;7.70;81.10;;;6.78;68.12;95580.53;5051863;28;20192;-43
2023/01/01 22:18:23;;;;;;;0.80;0.80;;;7.70;81.10;;;6.78;67.85;95577.91;5036192;28;20185;-41
2023/01/01 22:20:50;;;;;;;0.80;0.80;;;7.70;81.00;;;6.78;67.92;95571.91;5035937;28;20216;-39
2023/01/01 22:23:26;;;;;;;0.80;0.80;;;7.80;81.00;;;6.78;67.87;95569.28;5051956;28;20193;-41
2023/01/01 22:25:53;;;;;;;0.70;0.70;;;7.80;81.00;;;6.76;67.92;95568.59;5036562;28;20619;-38
2023/01/01 22:28:26;;;;;;;0.80;0.80;;;7.70;80.80;;;6.75;67.65;95553.94;5035100;28;20207;-38
2023/01/01 22:30:58;;;;;;;0.70;0.70;;;7.70;80.80;;;6.71;67.52;95561.25;5035177;28;20188;-38
2023/01/01 22:33:38;;;;;;;0.80;0.80;;;7.70;80.70;;;6.69;67.51;95560.59;5035054;28;20184;-38
2023/01/01 22:36:30;;;;;;;0.70;0.70;;;7.70;80.70;;;6.65;67.48;95567.06;5051643;28;20187;-38
2023/01/01 22:39:03;;;;;;;0.80;0.80;;;7.70;80.70;;;6.62;67.45;95570.78;5035874;28;20193;-38
2023/01/01 22:41:30;;;;;;;0.80;0.80;;;7.70;80.50;;;6.59;67.89;95565.88;5034584;28;20236;-38
2023/01/01 22:44:03;;;;;;;0.70;0.70;;;7.70;80.40;;;6.54;67.45;95563.72;5036026;28;20254;-38
2023/01/01 22:46:36;;;;;;;0.80;0.80;;;7.60;80.30;;;6.51;67.46;95568.41;5035705;28;20191;-38
2023/01/01 22:49:32;;;;;;;0.93;0.93;;;7.60;80.30;;;6.42;67.41;95564.94;5051257;28;20184;-38
2023/01/01 22:52:02;;;;;;;1.00;1.00;;;7.50;80.30;;;6.38;67.53;95555.75;5035615;28;20212;-38
2023/01/01 22:54:29;;;;;;;0.70;0.70;;;7.50;80.10;;;6.31;67.62;95563.38;5035461;28;20200;-38
2023/01/01 22:56:56;;;;;;;0.80;0.80;;;7.40;80.10;;;6.27;67.76;95563.81;5035709;28;20201;-38
2023/01/01 22:59:23;;;;;;;0.80;0.80;;;7.40;80.10;;;6.20;67.81;95558.34;5036216;28;20551;-38
2023/01/01 23:01:49;;;;;;;0.90;0.90;;;7.30;80.10;;;6.16;67.74;95549.22;5035130;28;20209;-39
2023/01/01 23:04:16;;;;;;;0.82;0.82;;;7.20;80.10;;;6.11;67.89;95547.06;5035353;28;20212;-39
2023/01/01 23:06:44;;;;;;;0.90;0.90;;;7.20;80.20;;;6.07;68.01;95549.13;5035320;28;20185;-39
2023/01/01 23:09:11;;;;;;;0.70;0.70;;;7.20;80.30;;;6.06;67.90;95539.69;5035209;28;20552;-41
2023/01/01 23:11:38;;;;;;;0.70;0.70;;;7.10;80.30;;;6.04;68.04;95541.63;5035068;28;20212;-39
2023/01/01 23:16:51;;;;;;;0.70;0.70;;;7.10;80.40;;;5.97;68.07;95531.91;5035340;28;20187;-41
2023/01/01 23:19:18;;;;;;;0.70;0.70;;;7.10;80.40;;;5.98;68.12;95529.19;5035135;28;20231;-40
2023/01/01 23:21:45;;;;;;;0.90;0.90;;;7.00;80.40;;;5.98;68.23;95523.13;5034876;28;20209;-45
2023/01/01 23:24:18;;;;;;;0.80;0.80;;;7.00;80.40;;;5.98;68.20;95531.78;5035390;28;20613;-41
2023/01/01 23:26:47;;;;;;;0.90;0.90;;;7.00;80.60;;;5.99;68.17;95532.63;5035081;28;20179;-43
2023/01/01 23:29:15;;;;;;;0.80;0.80;;;7.00;80.60;;;6.00;68.16;95537.66;5034111;28;20246;-40
2023/01/01 23:31:44;;;;;;;0.80;0.80;;;7.00;80.60;;;6.01;68.04;95539.31;5034797;28;20192;-38
2023/01/01 23:34:11;;;;;;;0.70;0.70;;;7.00;80.70;;;6.01;68.33;95533.28;5034943;28;20196;-38
2023/01/01 23:36:39;;;;;;;0.80;0.80;;;7.00;80.80;;;6.01;68.23;95538.50;5034806;28;20208;-42
2023/01/01 23:39:06;;;;;;;0.90;0.90;;;7.00;80.80;;;6.02;68.49;95538.34;5034828;28;20193;-46
2023/01/01 23:41:33;;;;;;;0.80;0.80;;;7.00;80.90;;;6.04;68.51;95525.16;5034509;28;20302;-40
2023/01/01 23:44:01;;;;;;;0.70;0.70;;;7.00;81.10;;;6.03;68.40;95526.97;5034811;28;20275;-41
2023/01/01 23:46:28;;;;;;;0.90;0.90;;;7.00;81.10;;;6.05;68.47;95530.25;5034858;28;20263;-38
2023/01/01 23:48:55;;;;;;;1.00;1.00;;;7.00;81.20;;;6.05;68.68;95519.84;5050481;28;20201;-43
2023/01/01 23:51:22;;;;;;;0.80;0.80;;;6.90;81.30;;;6.05;68.59;95516.41;5034622;28;20192;-40
2023/01/01 23:53:49;;;;;;;0.90;0.90;;;6.90;81.40;;;6.05;68.75;95522.44;5034737;28;20207;-41
2023/01/01 23:56:16;;;;;;;0.80;0.80;;;6.90;81.60;;;6.04;68.81;95527.78;5050355;28;20192;-39
2023/01/01 23:58:44;;;;;;;0.82;0.82;;;6.90;81.60;;;6.04;68.83;95520.81;5034812;28;20199;-42
